Time;durP1;ratioP1;P1;durP2;ratioP2;P2;SDS_P1;SDS_P2;PMS_P1;PMS_P2;Temp;Humidity;BMP_temperature;BMP_pressure;BME280_temperature;BME280_humidity;BME280_pressure;Samples;Min_cycle;Max_cycle;Signal;HPM_P1;HPM_P2
2023/07/20 00:00:42;;;;;;;10.10;3.63;;;23.00;57.60;;;;;;5053490;28;20439;-70
2023/07/20 00:03:16;;;;;;;10.43;4.33;;;23.00;57.70;;;;;;5053696;28;20437;-70
2023/07/20 00:05:44;;;;;;;9.43;4.30;;;23.00;57.90;;;;;;5052203;28;20439;-70
2023/07/20 00:08:12;;;;;;;5.70;3.63;;;23.00;58.20;;;;;;5053708;28;20535;-70
2023/07/20 00:10:41;;;;;;;6.80;3.63;;;22.90;58.30;;;;;;5053241;28;20547;-71
2023/07/20 00:13:08;;;;;;;6.23;3.77;;;23.00;58.60;;;;;;5053324;28;20528;-71
2023/07/20 00:15:35;;;;;;;12.90;3.60;;;23.00;58.80;;;;;;5052450;28;20549;-71
2023/07/20 00:18:05;;;;;;;6.40;3.10;;;23.00;58.90;;;;;;5052543;28;20473;-70
2023/07/20 00:20:32;;;;;;;6.33;3.77;;;22.90;58.80;;;;;;5053425;28;20523;-70
2023/07/20 00:22:59;;;;;;;7.43;3.50;;;22.90;58.80;;;;;;5053445;28;20631;-70
2023/07/20 00:25:27;;;;;;;5.93;3.37;;;22.90;58.70;;;;;;5052777;28;21100;-70
2023/07/20 00:27:54;;;;;;;4.20;3.03;;;22.90;58.80;;;;;;5053032;28;20487;-70
2023/07/20 00:30:21;;;;;;;5.57;3.10;;;22.90;58.70;;;;;;5053360;28;20445;-70
2023/07/20 00:32:48;;;;;;;6.33;2.80;;;23.00;58.80;;;;;;5052899;28;20439;-70
2023/07/20 00:35:20;;;;;;;6.27;3.40;;;22.90;59.10;;;;;;5053012;28;20564;-71
2023/07/20 00:37:49;;;;;;;5.27;3.30;;;22.90;59.30;;;;;;5053479;28;20479;-70
2023/07/20 00:40:17;;;;;;;4.10;3.00;;;22.90;58.90;;;;;;5053321;28;20740;-70
2023/07/20 00:42:46;;;;;;;4.67;2.40;;;22.80;59.10;;;;;;5052907;28;20480;-70
2023/07/20 00:45:13;;;;;;;5.60;2.87;;;22.80;58.70;;;;;;5051771;28;20519;-71
2023/07/20 00:47:45;;;;;;;9.20;3.43;;;22.80;58.80;;;;;;5053214;28;20457;-70
2023/07/20 00:50:13;;;;;;;8.13;3.17;;;22.80;59.30;;;;;;5052683;28;20998;-70
2023/07/20 00:52:44;;;;;;;10.60;3.83;;;22.80;59.60;;;;;;5052769;28;20527;-70
2023/07/20 00:55:16;;;;;;;6.93;3.30;;;22.80;59.60;;;;;;5052441;28;20514;-70
2023/07/20 00:57:43;;;;;;;6.03;3.63;;;22.80;60.70;;;;;;5053154;28;20536;-70
2023/07/20 01:00:13;;;;;;;5.73;3.40;;;22.80;61.60;;;;;;5053054;28;20464;-71
2023/07/20 01:02:40;;;;;;;7.30;3.10;;;22.80;61.60;;;;;;5053119;28;20440;-71
2023/07/20 01:05:08;;;;;;;5.83;3.50;;;22.80;61.80;;;;;;5052768;28;20449;-70
2023/07/20 01:07:39;;;;;;;7.67;3.00;;;22.70;61.80;;;;;;5052554;28;20437;-70
2023/07/20 01:10:15;;;;;;;7.17;4.70;;;22.70;61.50;;;;;;5052775;28;20465;-70
2023/07/20 01:12:47;;;;;;;5.83;3.33;;;22.40;62.00;;;;;;5053033;28;20429;-70
2023/07/20 01:15:16;;;;;;;5.13;3.40;;;22.30;62.80;;;;;;5052478;28;20509;-71
2023/07/20 01:17:45;;;;;;;8.83;3.90;;;22.10;64.50;;;;;;5055607;28;20634;-70
2023/07/20 01:20:15;;;;;;;6.57;3.50;;;22.00;65.20;;;;;;5056548;28;20443;-70
2023/07/20 01:23:08;;;;;;;9.53;4.20;;;21.90;66.10;;;;;;5055835;28;20483;-70
2023/07/20 01:26:05;;;;;;;6.97;3.67;;;21.90;66.60;;;;;;5056937;28;20428;-70
2023/07/20 01:28:50;;;;;;;8.13;4.13;;;21.80;67.00;;;;;;5051249;28;20513;-70
2023/07/20 01:31:23;;;;;;;6.73;3.70;;;21.70;68.10;;;;;;5056340;28;20423;-70
2023/07/20 01:33:53;;;;;;;7.20;3.23;;;21.60;68.60;;;;;;5056320;28;20515;-70
2023/07/20 01:36:20;;;;;;;7.73;3.57;;;21.50;68.90;;;;;;5055917;28;20521;-70
2023/07/20 01:38:48;;;;;;;7.10;4.17;;;21.50;69.20;;;;;;5056185;28;20937;-70
2023/07/20 01:41:16;;;;;;;4.93;3.30;;;21.60;69.30;;;;;;5056122;28;20441;-70
2023/07/20 01:43:45;;;;;;;5.37;3.63;;;21.50;69.60;;;;;;5055948;28;20935;-70
2023/07/20 01:46:17;;;;;;;5.93;3.40;;;21.50;69.60;;;;;;5056146;28;20476;-70
2023/07/20 01:48:45;;;;;;;5.00;3.33;;;21.50;69.80;;;;;;5055893;28;20499;-70
2023/07/20 01:51:14;;;;;;;4.50;3.13;;;21.40;69.60;;;;;;5056274;28;20439;-70
2023/07/20 01:53:46;;;;;;;5.33;3.70;;;21.40;70.30;;;;;;5056129;28;20440;-70
2023/07/20 01:56:13;;;;;;;5.63;3.50;;;21.50;70.70;;;;;;5054944;28;20514;-70
2023/07/20 01:58:45;;;;;;;7.33;4.03;;;21.60;71.30;;;;;;5056236;28;20506;-70
2023/07/20 02:01:12;;;;;;;7.33;3.40;;;21.60;71.00;;;;;;5056410;28;20519;-70
2023/07/20 02:03:39;;;;;;;4.63;2.73;;;21.60;69.60;;;;;;5056082;28;20493;-70
2023/07/20 02:06:08;;;;;;;7.23;3.00;;;21.70;68.80;;;;;;5056168;28;20452;-70
2023/07/20 02:08:36;;;;;;;10.10;3.87;;;21.70;69.40;;;;;;5056211;28;20492;-70
2023/07/20 02:11:09;;;;;;;5.70;3.73;;;21.80;69.60;;;;;;5056120;28;20533;-70
2023/07/20 02:13:36;;;;;;;5.90;3.50;;;21.90;69.90;;;;;;5055761;28;20477;-71
2023/07/20 02:16:04;;;;;;;5.00;3.30;;;21.80;70.40;;;;;;5055507;28;20483;-70
2023/07/20 02:18:31;;;;;;;4.10;3.07;;;21.90;70.90;;;;;;5055693;28;20466;-71
2023/07/20 02:21:00;;;;;;;4.63;3.17;;;21.90;71.10;;;;;;5055492;28;20531;-70
2023/07/20 02:23:28;;;;;;;4.70;3.37;;;21.90;71.30;;;;;;5055047;28;20518;-70
2023/07/20 02:25:57;;;;;;;7.83;3.50;;;21.90;71.60;;;;;;5055348;28;20505;-71
2023/07/20 02:28:24;;;;;;;9.17;3.77;;;21.90;71.90;;;;;;5054556;28;20475;-70
2023/07/20 02:30:51;;;;;;;7.57;3.90;;;21.90;71.60;;;;;;5055144;28;20441;-70
2023/07/20 02:33:21;;;;;;;7.30;3.83;;;21.90;71.50;;;;;;5054790;28;20526;-70
2023/07/20 02:35:53;;;;;;;8.00;3.80;;;21.90;71.70;;;;;;5055218;28;20475;-70
2023/07/20 02:38:20;;;;;;;6.70;3.73;;;21.90;71.70;;;;;;5055584;28;20436;-70
2023/07/20 02:40:49;;;;;;;7.37;3.87;;;21.80;72.20;;;;;;5054982;28;20474;-71
2023/07/20 02:43:19;;;;;;;5.20;3.20;;;21.90;72.80;;;;;;5054761;28;20455;-71
2023/07/20 02:45:49;;;;;;;5.27;3.13;;;21.90;72.80;;;;;;5055301;28;20541;-70
2023/07/20 02:48:18;;;;;;;7.00;3.40;;;21.90;73.30;;;;;;5054871;28;20474;-70
2023/07/20 02:50:47;;;;;;;6.53;2.90;;;21.90;73.90;;;;;;5054905;28;20501;-70
2023/07/20 02:53:16;;;;;;;5.53;3.00;;;21.90;74.00;;;;;;5055137;28;20543;-70
2023/07/20 02:55:44;;;;;;;5.23;3.57;;;21.90;74.30;;;;;;5055061;28;20472;-70
2023/07/20 02:58:13;;;;;;;6.63;3.00;;;21.90;75.20;;;;;;5054332;28;20990;-70
2023/07/20 03:00:40;;;;;;;6.83;3.50;;;21.90;75.90;;;;;;5055014;28;20466;-70
2023/07/20 03:03:09;;;;;;;4.60;2.70;;;21.90;75.60;;;;;;5054970;28;20473;-70
2023/07/20 03:05:37;;;;;;;5.10;3.00;;;21.90;75.40;;;;;;5054657;28;20977;-70
2023/07/20 03:08:08;;;;;;;5.00;2.80;;;21.90;74.30;;;;;;5054668;28;20839;-70
2023/07/20 03:10:40;;;;;;;6.67;3.07;;;21.80;73.00;;;;;;5054536;28;20473;-70
2023/07/20 03:13:07;;;;;;;4.53;3.13;;;21.80;73.80;;;;;;5055122;28;20428;-70
2023/07/20 03:15:36;;;;;;;4.33;3.03;;;21.70;75.40;;;;;;5054968;28;20507;-70
2023/07/20 03:18:04;;;;;;;4.20;2.67;;;21.70;76.30;;;;;;5053310;28;20480;-70
2023/07/20 03:20:32;;;;;;;5.27;3.20;;;21.70;76.00;;;;;;5054354;28;20926;-70
2023/07/20 03:22:59;;;;;;;4.90;2.63;;;21.70;75.60;;;;;;5054693;28;20479;-71
2023/07/20 03:25:31;;;;;;;6.97;2.70;;;21.70;74.90;;;;;;5054565;28;20449;-71
2023/07/20 03:28:03;;;;;;;6.33;2.57;;;21.70;74.10;;;;;;5053810;28;20937;-70
2023/07/20 03:30:37;;;;;;;3.40;2.00;;;21.60;73.00;;;;;;5054463;28;20432;-70
2023/07/20 03:33:10;;;;;;;6.07;2.07;;;21.60;72.90;;;;;;5054515;28;20518;-70
2023/07/20 03:35:37;;;;;;;3.63;2.33;;;21.50;72.60;;;;;;5054082;28;20468;-70
2023/07/20 03:38:05;;;;;;;4.27;1.90;;;21.50;73.00;;;;;;5053539;28;20445;-70
2023/07/20 03:40:36;;;;;;;5.20;2.40;;;21.50;72.50;;;;;;5054215;28;20448;-70
2023/07/20 03:43:05;;;;;;;6.30;2.10;;;21.40;72.80;;;;;;5054448;28;20554;-70
2023/07/20 03:45:34;;;;;;;7.60;2.67;;;21.30;72.20;;;;;;5053871;28;20930;-70
2023/07/20 03:48:03;;;;;;;4.73;2.40;;;21.30;73.00;;;;;;5053230;28;20472;-70
2023/07/20 03:50:30;;;;;;;9.60;2.67;;;21.30;73.00;;;;;;5054105;28;20471;-70
2023/07/20 03:52:57;;;;;;;3.47;2.17;;;21.30;73.30;;;;;;5054079;28;20439;-70
2023/07/20 03:55:24;;;;;;;3.27;1.80;;;21.30;74.20;;;;;;5053927;28;20526;-70
2023/07/20 03:57:51;;;;;;;5.20;1.83;;;21.20;74.50;;;;;;5053704;28;20523;-70
2023/07/20 04:00:21;;;;;;;4.47;2.00;;;21.20;74.10;;;;;;5053575;28;20910;-70
2023/07/20 04:02:48;;;;;;;5.57;2.77;;;21.20;74.50;;;;;;5053985;28;20434;-70
2023/07/20 04:05:16;;;;;;;8.63;2.30;;;21.20;74.80;;;;;;5053532;28;20537;-70
2023/07/20 04:07:43;;;;;;;3.20;1.83;;;21.10;74.50;;;;;;5053053;28;20820;-70
2023/07/20 04:10:11;;;;;;;11.10;2.73;;;21.10;73.90;;;;;;5053724;28;20479;-70
2023/07/20 04:12:38;;;;;;;6.20;3.00;;;21.10;74.00;;;;;;5053521;28;20467;-70
2023/07/20 04:15:11;;;;;;;4.93;2.10;;;21.10;74.50;;;;;;5053554;28;20865;-70
2023/07/20 04:17:38;;;;;;;3.50;2.30;;;21.00;73.90;;;;;;5053383;28;20533;-70
2023/07/20 04:20:07;;;;;;;4.87;2.37;;;21.00;74.60;;;;;;5053317;28;20989;-71
2023/07/20 04:22:35;;;;;;;14.33;3.37;;;21.00;75.90;;;;;;5053332;28;20438;-70
2023/07/20 04:25:02;;;;;;;8.77;2.20;;;20.90;76.40;;;;;;5053628;28;20529;-70
2023/07/20 04:27:29;;;;;;;7.13;3.40;;;20.80;76.80;;;;;;5052190;28;20476;-70
2023/07/20 04:30:01;;;;;;;3.57;1.90;;;20.70;77.20;;;;;;5053182;28;20530;-70
2023/07/20 04:32:28;;;;;;;4.17;2.40;;;20.70;78.10;;;;;;5053261;28;20515;-70
2023/07/20 04:34:55;;;;;;;3.90;2.13;;;20.70;79.40;;;;;;5053452;28;20458;-70
2023/07/20 04:37:22;;;;;;;9.90;2.50;;;20.70;80.10;;;;;;5052764;28;21000;-70
2023/07/20 04:39:50;;;;;;;3.07;1.87;;;20.70;79.70;;;;;;5053667;28;20840;-70
2023/07/20 04:42:17;;;;;;;4.80;2.03;;;20.60;79.70;;;;;;5053052;28;20946;-70
2023/07/20 04:44:49;;;;;;;3.53;1.93;;;20.60;80.10;;;;;;5052932;28;20447;-70
2023/07/20 04:47:16;;;;;;;5.10;2.20;;;20.50;81.20;;;;;;5053118;28;20517;-70
2023/07/20 04:49:43;;;;;;;5.30;2.47;;;20.50;81.50;;;;;;5050825;28;20525;-70
2023/07/20 04:52:10;;;;;;;3.70;1.60;;;20.40;80.30;;;;;;5053027;28;20444;-70
2023/07/20 04:54:42;;;;;;;4.70;1.90;;;20.40;80.90;;;;;;5057120;28;20517;-70
2023/07/20 04:57:13;;;;;;;6.00;2.43;;;20.40;81.50;;;;;;5056367;28;20876;-70
2023/07/20 04:59:39;;;;;;;5.97;3.00;;;20.40;81.60;;;;;;5056636;28;20824;-70
2023/07/20 05:02:06;;;;;;;4.97;1.83;;;20.30;82.40;;;;;;5055913;28;20519;-70
2023/07/20 05:04:33;;;;;;;5.40;2.87;;;20.20;83.20;;;;;;5056779;28;20493;-70
2023/07/20 05:07:02;;;;;;;6.40;2.50;;;20.20;83.00;;;;;;5056498;28;20493;-70
2023/07/20 05:09:29;;;;;;;3.67;2.20;;;20.10;82.30;;;;;;5056282;28;20498;-70
2023/07/20 05:11:56;;;;;;;4.10;2.30;;;20.00;83.30;;;;;;5055167;28;20480;-70
2023/07/20 05:14:24;;;;;;;6.60;2.80;;;19.60;85.50;;;;;;5056511;28;20534;-69
2023/07/20 05:16:51;;;;;;;4.30;2.43;;;19.50;87.30;;;;;;5056404;28;20569;-71
2023/07/20 05:19:18;;;;;;;5.87;2.30;;;19.30;88.40;;;;;;5056136;28;20442;-69
2023/07/20 05:21:45;;;;;;;7.13;2.77;;;19.00;90.20;;;;;;5055313;28;20478;-70
2023/07/20 05:24:12;;;;;;;8.20;2.70;;;19.10;90.50;;;;;;5056091;28;20605;-69
2023/07/20 05:26:39;;;;;;;4.40;2.40;;;19.20;90.60;;;;;;5055879;28;20434;-71
2023/07/20 05:29:06;;;;;;;4.00;2.40;;;19.30;90.70;;;;;;5055768;28;20438;-70
2023/07/20 05:31:35;;;;;;;3.80;2.90;;;19.30;91.00;;;;;;5055772;28;20438;-70
2023/07/20 05:34:02;;;;;;;5.53;2.70;;;19.30;91.20;;;;;;5056193;28;20530;-70
2023/07/20 05:36:30;;;;;;;5.23;2.53;;;19.00;91.60;;;;;;5053539;28;21034;-70
2023/07/20 05:38:57;;;;;;;4.00;2.53;;;19.00;92.10;;;;;;5055427;28;20514;-70
2023/07/20 05:41:24;;;;;;;5.10;3.00;;;18.90;92.80;;;;;;5055326;28;20853;-70
2023/07/20 05:43:52;;;;;;;4.93;3.30;;;18.90;93.30;;;;;;5054539;28;20434;-70
2023/07/20 05:46:19;;;;;;;8.80;2.90;;;19.00;93.50;;;;;;5055142;28;20995;-70
2023/07/20 05:48:47;;;;;;;6.20;2.83;;;19.10;94.10;;;;;;5055835;28;20438;-70
2023/07/20 05:51:15;;;;;;;4.87;2.50;;;19.20;94.40;;;;;;5055369;28;20488;-70
2023/07/20 05:53:44;;;;;;;5.30;3.40;;;19.30;94.80;;;;;;5055778;28;20438;-70
2023/07/20 05:56:11;;;;;;;5.13;3.20;;;19.40;95.00;;;;;;5055495;28;20505;-70
2023/07/20 05:58:45;;;;;;;12.47;3.50;;;19.40;94.00;;;;;;5055708;28;20548;-70
2023/07/20 06:01:12;;;;;;;7.30;3.10;;;19.40;93.90;;;;;;5051627;28;20512;-71
2023/07/20 06:03:39;;;;;;;5.80;3.50;;;19.50;94.10;;;;;;5055309;28;20430;-70
2023/07/20 06:06:09;;;;;;;4.00;2.30;;;19.60;94.40;;;;;;5055365;28;20728;-70
2023/07/20 06:08:36;;;;;;;4.53;2.80;;;19.70;94.50;;;;;;5055306;28;20834;-70
2023/07/20 06:11:03;;;;;;;9.17;3.00;;;19.80;94.50;;;;;;5054671;28;20500;-70
2023/07/20 06:13:30;;;;;;;3.80;2.70;;;19.90;93.40;;;;;;5054674;28;20526;-70
2023/07/20 06:15:57;;;;;;;4.80;2.07;;;19.90;92.90;;;;;;5054821;28;20485;-75
2023/07/20 06:18:26;;;;;;;5.70;3.60;;;20.00;91.80;;;;;;5054541;28;20513;-70
2023/07/20 06:20:58;;;;;;;4.07;2.20;;;20.00;92.00;;;;;;5054816;28;20470;-70
2023/07/20 06:23:27;;;;;;;6.47;2.67;;;19.90;91.70;;;;;;5036057;28;20437;-70
2023/07/20 06:25:54;;;;;;;6.67;2.50;;;19.80;91.80;;;;;;5054146;28;20483;-70
2023/07/20 06:28:21;;;;;;;3.30;2.10;;;19.70;91.90;;;;;;5054952;28;20832;-72
2023/07/20 06:30:51;;;;;;;7.13;3.13;;;19.60;92.50;;;;;;5054256;28;20793;-70
2023/07/20 06:33:20;;;;;;;4.93;3.27;;;19.70;93.60;;;;;;5055006;28;20473;-70
2023/07/20 06:35:47;;;;;;;4.90;2.60;;;19.90;93.60;;;;;;5054391;28;20485;-71
2023/07/20 06:38:14;;;;;;;4.33;2.40;;;20.00;93.30;;;;;;5054518;28;20519;-70
2023/07/20 06:40:42;;;;;;;5.97;2.30;;;20.00;93.20;;;;;;5053790;28;20474;-70
2023/07/20 06:43:11;;;;;;;10.10;2.53;;;20.10;92.80;;;;;;5054382;28;20443;-70
2023/07/20 06:45:43;;;;;;;10.20;2.60;;;20.20;93.00;;;;;;5055292;28;20470;-70
2023/07/20 06:48:10;;;;;;;4.60;2.93;;;20.20;93.40;;;;;;5055489;28;20786;-71
2023/07/20 06:50:37;;;;;;;6.27;2.33;;;20.30;92.70;;;;;;5055234;28;20826;-70
2023/07/20 06:53:04;;;;;;;4.90;2.67;;;20.30;92.10;;;;;;5055386;28;20573;-70
2023/07/20 06:55:35;;;;;;;8.67;3.13;;;20.40;91.30;;;;;;5055270;28;20515;-70
2023/07/20 06:58:04;;;;;;;5.13;2.87;;;20.50;91.00;;;;;;5055111;28;20481;-70
2023/07/20 07:00:35;;;;;;;10.10;2.83;;;20.50;91.30;;;;;;5054838;28;20994;-70
2023/07/20 07:03:04;;;;;;;4.90;2.70;;;20.70;91.90;;;;;;5055150;28;20782;-71
2023/07/20 07:05:31;;;;;;;7.87;2.63;;;20.80;91.10;;;;;;5055053;28;20912;-70
2023/07/20 07:08:03;;;;;;;4.00;2.20;;;20.80;90.60;;;;;;5054984;28;20439;-70
2023/07/20 07:10:32;;;;;;;4.80;2.43;;;20.90;90.10;;;;;;5054586;28;20551;-70
2023/07/20 07:13:09;;;;;;;5.27;2.40;;;20.90;89.90;;;;;;5055008;28;20547;-70
2023/07/20 07:15:39;;;;;;;5.57;3.40;;;21.00;88.70;;;;;;5054353;28;20819;-70
2023/07/20 07:18:06;;;;;;;4.60;2.73;;;21.10;89.20;;;;;;5054935;28;20552;-70
2023/07/20 07:20:33;;;;;;;4.60;2.00;;;21.20;88.60;;;;;;5054845;28;20532;-70
2023/07/20 07:23:02;;;;;;;5.13;2.30;;;21.30;86.70;;;;;;5054699;28;20860;-70
2023/07/20 07:25:32;;;;;;;4.87;2.63;;;21.40;86.50;;;;;;5054354;28;20434;-70
2023/07/20 07:28:00;;;;;;;5.07;3.27;;;21.40;83.60;;;;;;5054662;28;20448;-70
2023/07/20 07:30:28;;;;;;;4.03;2.20;;;21.40;77.30;;;;;;5054204;28;20992;-70
2023/07/20 07:32:56;;;;;;;5.60;2.30;;;21.40;78.30;;;;;;5054531;28;20450;-70
2023/07/20 07:35:25;;;;;;;6.17;2.80;;;21.50;76.00;;;;;;5054217;28;20443;-70
2023/07/20 07:37:57;;;;;;;9.47;2.60;;;21.60;73.60;;;;;;5054066;28;20986;-70
2023/07/20 07:40:24;;;;;;;3.83;2.27;;;21.40;73.70;;;;;;5054527;28;20459;-71
2023/07/20 07:42:53;;;;;;;5.00;2.17;;;21.40;74.60;;;;;;5053996;28;20448;-71
2023/07/20 07:45:22;;;;;;;5.43;2.90;;;21.50;75.40;;;;;;5054172;28;20630;-70
2023/07/20 07:47:49;;;;;;;3.93;2.10;;;21.60;75.50;;;;;;5054306;28;20498;-70
2023/07/20 07:50:19;;;;;;;3.77;2.17;;;21.70;78.00;;;;;;5053840;28;20480;-70
2023/07/20 07:52:50;;;;;;;6.77;2.30;;;21.70;78.40;;;;;;5053778;28;20446;-70
2023/07/20 07:55:22;;;;;;;4.43;2.47;;;21.80;78.30;;;;;;5054172;28;20501;-70
2023/07/20 07:57:49;;;;;;;4.33;2.47;;;21.80;77.20;;;;;;5054117;28;20460;-70
2023/07/20 08:00:18;;;;;;;3.17;1.90;;;21.80;77.30;;;;;;5053944;28;20892;-70
2023/07/20 08:02:48;;;;;;;3.93;2.20;;;21.80;77.20;;;;;;5053949;28;20446;-70
2023/07/20 08:05:16;;;;;;;3.53;1.97;;;21.90;78.30;;;;;;5053575;28;20964;-70
2023/07/20 08:07:44;;;;;;;4.03;2.30;;;22.00;77.70;;;;;;5053943;28;20440;-70
2023/07/20 08:10:15;;;;;;;4.50;2.50;;;22.20;74.60;;;;;;5053367;28;20991;-70
2023/07/20 08:12:43;;;;;;;4.60;2.47;;;22.10;73.80;;;;;;5053536;28;20461;-70
2023/07/20 08:15:14;;;;;;;3.30;2.10;;;22.00;74.40;;;;;;5053756;28;20489;-70
2023/07/20 08:17:43;;;;;;;5.67;2.83;;;22.00;73.50;;;;;;5053367;28;20471;-70
2023/07/20 08:20:12;;;;;;;4.70;2.20;;;21.80;73.80;;;;;;5053659;28;20469;-75
2023/07/20 08:22:42;;;;;;;4.00;2.30;;;21.90;74.70;;;;;;5053702;28;20474;-70
2023/07/20 08:25:10;;;;;;;4.20;1.83;;;22.00;76.00;;;;;;5053590;28;20451;-70
2023/07/20 08:27:38;;;;;;;4.50;2.40;;;22.10;75.20;;;;;;5052778;28;20543;-71
2023/07/20 08:30:08;;;;;;;4.40;2.30;;;22.10;73.10;;;;;;5053497;28;20498;-70
2023/07/20 08:32:35;;;;;;;5.30;2.30;;;22.20;72.70;;;;;;5053568;28;20429;-70
2023/07/20 08:35:05;;;;;;;6.63;2.23;;;22.30;69.70;;;;;;5053541;28;20552;-70
2023/07/20 08:37:34;;;;;;;7.23;2.57;;;22.30;63.50;;;;;;5053452;28;20471;-70
2023/07/20 08:40:08;;;;;;;7.17;2.47;;;22.30;64.50;;;;;;5053449;28;20451;-70
2023/07/20 08:42:38;;;;;;;4.53;2.03;;;22.30;64.60;;;;;;5053417;28;20485;-70
2023/07/20 08:45:09;;;;;;;5.50;2.70;;;22.30;64.50;;;;;;5053332;28;20500;-70
2023/07/20 08:47:44;;;;;;;5.30;2.20;;;22.30;65.70;;;;;;5053489;28;20430;-70
2023/07/20 08:50:13;;;;;;;6.33;2.37;;;22.30;65.60;;;;;;5053403;28;20454;-70
2023/07/20 08:52:42;;;;;;;6.80;2.27;;;22.40;64.50;;;;;;5053277;28;20501;-70
2023/07/20 08:55:11;;;;;;;4.87;2.20;;;22.40;63.20;;;;;;5052966;28;20437;-70
2023/07/20 08:57:42;;;;;;;4.30;2.37;;;22.50;64.70;;;;;;5053182;28;20479;-72
2023/07/20 09:00:12;;;;;;;7.13;2.60;;;22.50;63.60;;;;;;5053303;28;20419;-70
2023/07/20 09:02:51;;;;;;;3.47;2.23;;;22.50;64.00;;;;;;5053273;28;20437;-70
2023/07/20 09:05:24;;;;;;;6.00;2.10;;;22.60;66.20;;;;;;5052934;28;20444;-70
2023/07/20 09:07:55;;;;;;;4.97;2.50;;;22.60;60.20;;;;;;5053278;28;20433;-70
2023/07/20 09:10:29;;;;;;;4.90;2.60;;;22.60;61.30;;;;;;5052785;28;20884;-70
2023/07/20 09:12:56;;;;;;;3.93;2.10;;;22.80;61.00;;;;;;5053107;28;20467;-71
2023/07/20 09:15:24;;;;;;;7.03;2.57;;;22.90;61.90;;;;;;5052726;28;20512;-71
2023/07/20 09:17:53;;;;;;;5.70;2.23;;;23.00;62.80;;;;;;5053029;28;20558;-70
2023/07/20 09:20:25;;;;;;;4.47;2.10;;;23.10;64.30;;;;;;5053036;28;20444;-70
2023/07/20 09:22:54;;;;;;;4.90;2.50;;;23.20;61.80;;;;;;5053118;28;20505;-71
2023/07/20 09:25:22;;;;;;;6.23;2.13;;;23.30;62.30;;;;;;5053006;28;20528;-70
2023/07/20 09:27:51;;;;;;;4.03;2.33;;;23.40;62.70;;;;;;5052849;28;20452;-71
2023/07/20 09:30:25;;;;;;;4.97;2.37;;;23.50;64.80;;;;;;5052592;28;20529;-70
2023/07/20 09:32:53;;;;;;;3.17;2.10;;;23.70;60.70;;;;;;5052735;28;20475;-70
2023/07/20 09:35:28;;;;;;;4.83;2.23;;;23.70;59.00;;;;;;5052946;28;20476;-70
2023/07/20 09:37:59;;;;;;;4.40;2.40;;;23.80;60.30;;;;;;5054052;28;20977;-70
2023/07/20 09:40:42;;;;;;;5.07;2.20;;;23.90;60.70;;;;;;5057062;28;20789;-70
2023/07/20 09:43:17;;;;;;;4.13;2.40;;;24.10;58.90;;;;;;5056690;28;20445;-70
2023/07/20 09:45:44;;;;;;;10.50;2.43;;;24.10;57.90;;;;;;5056631;28;20486;-71
2023/07/20 09:48:12;;;;;;;9.97;2.30;;;24.10;58.00;;;;;;5056513;28;20854;-70
2023/07/20 09:50:49;;;;;;;5.43;2.33;;;24.20;57.60;;;;;;5056164;28;20528;-70
2023/07/20 09:53:21;;;;;;;3.87;2.10;;;24.30;58.70;;;;;;5056536;28;20425;-70
2023/07/20 09:55:54;;;;;;;5.80;2.60;;;24.50;58.70;;;;;;5056453;28;20773;-70
2023/07/20 09:58:23;;;;;;;6.10;2.47;;;24.70;59.20;;;;;;5056400;28;20468;-71
2023/07/20 10:00:53;;;;;;;4.47;2.10;;;24.80;56.00;;;;;;5055929;28;20938;-71
2023/07/20 10:03:29;;;;;;;4.47;2.50;;;24.80;55.00;;;;;;5056512;28;20469;-70
2023/07/20 10:06:01;;;;;;;6.30;2.47;;;24.80;55.50;;;;;;5056247;28;20468;-70
2023/07/20 10:08:31;;;;;;;6.70;1.93;;;24.80;54.10;;;;;;5055930;28;20509;-71
2023/07/20 10:11:03;;;;;;;3.10;2.00;;;24.80;54.60;;;;;;5055536;28;20539;-70
2023/07/20 10:13:37;;;;;;;3.30;2.03;;;24.90;55.50;;;;;;5056216;28;20429;-70
2023/07/20 10:16:10;;;;;;;7.00;2.57;;;24.90;56.60;;;;;;5056103;28;20847;-70
2023/07/20 10:18:52;;;;;;;3.97;2.60;;;25.10;56.30;;;;;;5055582;28;20617;-70
2023/07/20 10:21:22;;;;;;;4.37;2.07;;;25.20;54.00;;;;;;5055671;28;20483;-71
2023/07/20 10:23:50;;;;;;;3.90;2.40;;;25.30;55.20;;;;;;5055933;28;20426;-71
2023/07/20 10:26:17;;;;;;;4.80;2.50;;;25.60;55.70;;;;;;5055819;28;20516;-70
2023/07/20 10:28:46;;;;;;;4.20;2.40;;;25.80;55.60;;;;;;5055343;28;20449;-71
2023/07/20 10:31:19;;;;;;;5.93;2.33;;;25.90;54.40;;;;;;5055379;28;20520;-71
2023/07/20 10:33:46;;;;;;;4.23;2.47;;;26.10;54.40;;;;;;5055746;28;20508;-70
2023/07/20 10:36:14;;;;;;;5.20;2.33;;;26.10;53.10;;;;;;5055523;28;20473;-70
2023/07/20 10:38:41;;;;;;;3.60;2.47;;;26.10;53.10;;;;;;5055181;28;20465;-70
2023/07/20 10:41:20;;;;;;;3.03;2.20;;;26.20;54.00;;;;;;5055470;28;20761;-70
2023/07/20 10:43:51;;;;;;;3.70;2.50;;;26.20;51.80;;;;;;5055382;28;20772;-71
2023/07/20 10:46:42;;;;;;;4.50;2.20;;;26.30;52.50;;;;;;5055111;28;20903;-70
2023/07/20 10:49:16;;;;;;;8.10;3.10;;;26.40;51.80;;;;;;5054193;28;20465;-70
2023/07/20 10:51:44;;;;;;;2.97;1.83;;;26.50;52.80;;;;;;5055671;28;20429;-70
2023/07/20 10:54:35;;;;;;;4.03;2.17;;;26.60;51.60;;;;;;5055378;28;20488;-71
2023/07/20 10:57:31;;;;;;;4.87;2.63;;;26.60;51.80;;;;;;5055011;28;20513;-70
2023/07/20 11:00:15;;;;;;;8.53;2.87;;;26.70;52.10;;;;;;5054781;28;20444;-70
2023/07/20 11:02:46;;;;;;;6.23;3.00;;;26.80;51.40;;;;;;5054386;28;20484;-70
2023/07/20 11:05:35;;;;;;;4.50;1.90;;;26.80;50.50;;;;;;5055052;28;20477;-70
2023/07/20 11:08:11;;;;;;;2.87;1.67;;;27.00;50.20;;;;;;5054724;28;20444;-70
2023/07/20 11:10:38;;;;;;;4.20;1.80;;;27.00;49.50;;;;;;5054659;28;20493;-70
2023/07/20 11:13:18;;;;;;;4.20;2.27;;;27.20;50.50;;;;;;5054620;28;20488;-70
2023/07/20 11:16:05;;;;;;;6.50;2.47;;;27.20;49.00;;;;;;5054976;28;20435;-70
2023/07/20 11:18:35;;;;;;;4.77;2.23;;;27.30;49.00;;;;;;5054425;28;20468;-71
2023/07/20 11:21:03;;;;;;;3.87;2.10;;;27.40;49.00;;;;;;5054426;28;20521;-71
2023/07/20 11:23:33;;;;;;;6.40;2.40;;;27.50;49.60;;;;;;5054738;28;20441;-70
2023/07/20 11:26:05;;;;;;;4.83;2.10;;;27.70;49.20;;;;;;5054303;28;20540;-70
2023/07/20 11:28:35;;;;;;;3.83;1.70;;;27.80;48.10;;;;;;5054643;28;20512;-70
2023/07/20 11:31:03;;;;;;;3.60;2.10;;;27.80;47.00;;;;;;5054680;28;20457;-71
2023/07/20 11:33:30;;;;;;;6.50;2.50;;;27.80;47.10;;;;;;5054474;28;20528;-71
2023/07/20 11:35:58;;;;;;;3.53;1.77;;;28.00;47.40;;;;;;5054360;28;20445;-71
2023/07/20 11:38:27;;;;;;;3.80;2.57;;;28.10;46.80;;;;;;5054035;28;20481;-70
2023/07/20 11:40:54;;;;;;;3.67;1.67;;;28.20;45.30;;;;;;5054177;28;20528;-70
2023/07/20 11:43:32;;;;;;;3.33;2.00;;;28.10;45.60;;;;;;5054339;28;20473;-70
2023/07/20 11:45:59;;;;;;;5.53;1.93;;;28.10;44.50;;;;;;5054026;28;20513;-70
2023/07/20 11:48:27;;;;;;;3.70;2.10;;;28.20;45.70;;;;;;5054350;28;20515;-71
2023/07/20 11:50:59;;;;;;;5.90;2.20;;;28.30;44.90;;;;;;5054375;28;20619;-71
2023/07/20 11:53:26;;;;;;;4.23;2.30;;;28.50;44.10;;;;;;5054223;28;20422;-71
2023/07/20 11:55:57;;;;;;;3.20;1.80;;;28.50;44.90;;;;;;5054118;28;20449;-70
2023/07/20 11:58:24;;;;;;;3.47;1.70;;;28.50;44.50;;;;;;5053821;28;20894;-70
2023/07/20 12:00:51;;;;;;;2.80;1.90;;;28.50;44.90;;;;;;5053879;28;20528;-70
2023/07/20 12:03:19;;;;;;;3.80;1.80;;;28.50;44.10;;;;;;5054019;28;20495;-70
2023/07/20 12:05:50;;;;;;;11.53;2.07;;;28.40;42.60;;;;;;5053670;28;20469;-70
2023/07/20 12:08:17;;;;;;;5.43;1.80;;;28.40;43.20;;;;;;5053942;28;20483;-71
2023/07/20 12:10:44;;;;;;;3.77;2.40;;;28.40;43.70;;;;;;5053419;28;20501;-71
2023/07/20 12:13:12;;;;;;;4.13;2.13;;;28.40;44.40;;;;;;5053454;28;20981;-71
2023/07/20 12:15:44;;;;;;;6.10;1.97;;;28.40;43.60;;;;;;5053673;28;20437;-71
2023/07/20 12:18:13;;;;;;;5.40;2.00;;;28.50;44.70;;;;;;5053740;28;20548;-70
2023/07/20 12:20:40;;;;;;;6.63;2.23;;;28.60;44.80;;;;;;5053772;28;20863;-70
2023/07/20 12:23:12;;;;;;;3.47;2.27;;;28.60;43.40;;;;;;5053668;28;20457;-70
2023/07/20 12:25:42;;;;;;;5.13;2.50;;;28.40;42.10;;;;;;5053804;28;20460;-70
2023/07/20 12:28:15;;;;;;;2.90;1.37;;;28.40;43.30;;;;;;5053423;28;20991;-71
2023/07/20 12:30:47;;;;;;;4.20;2.00;;;28.60;44.90;;;;;;5053106;28;20912;-70
2023/07/20 12:33:19;;;;;;;7.90;2.50;;;28.70;43.80;;;;;;5053475;28;20438;-70
2023/07/20 12:35:46;;;;;;;4.10;2.10;;;28.70;42.10;;;;;;5053623;28;20455;-71
2023/07/20 12:38:15;;;;;;;3.13;1.90;;;28.80;43.10;;;;;;5053370;28;20580;-71
2023/07/20 12:40:42;;;;;;;4.97;1.90;;;28.70;40.80;;;;;;5053477;28;20785;-70
2023/07/20 12:43:10;;;;;;;6.37;2.60;;;28.70;42.80;;;;;;5052947;28;20438;-70
2023/07/20 12:45:40;;;;;;;3.57;1.87;;;28.80;42.30;;;;;;5053376;28;20795;-70
2023/07/20 12:48:10;;;;;;;4.30;2.30;;;28.80;42.30;;;;;;5053570;28;20452;-70
2023/07/20 12:50:37;;;;;;;3.93;2.20;;;28.80;41.30;;;;;;5053284;28;20452;-71
2023/07/20 12:53:06;;;;;;;3.90;2.27;;;28.70;40.20;;;;;;5053046;28;20500;-71
2023/07/20 12:55:34;;;;;;;3.80;2.13;;;28.70;41.30;;;;;;5052981;28;20937;-70
2023/07/20 12:58:06;;;;;;;3.43;2.30;;;28.70;41.80;;;;;;5053207;28;20559;-70